Time;durP1;ratioP1;P1;durP2;ratioP2;P2;SDS_P1;SDS_P2;PMS_P1;PMS_P2;Temp;Humidity;BMP_temperature;BMP_pressure;BME280_temperature;BME280_humidity;BME280_pressure;Samples;Min_cycle;Max_cycle;Signal;HPM_P1;HPM_P2
2022/10/25 04:32:29;;;;;;;;;2.75;2.75;;;;;15.80;77.03;101222.09;5053717;27;45898;-73
2022/10/25 04:34:54;;;;;;;;;4.00;1.25;;;;;15.75;76.74;101218.78;5053941;28;45327;-73
2022/10/25 04:37:19;;;;;;;;;1.75;1.75;;;;;15.73;76.93;101218.03;5055308;28;51583;-72
2022/10/25 04:39:45;;;;;;;;;1.00;1.00;;;;;15.76;76.81;101213.28;5057146;28;45977;-73
2022/10/25 04:42:10;;;;;;;;;1.75;1.75;;;;;15.77;77.11;101215.03;5038771;28;45406;-73
2022/10/25 04:44:35;;;;;;;;;3.50;2.50;;;;;15.78;77.30;101214.06;5056397;28;45378;-74
2022/10/25 04:47:01;;;;;;;;;3.25;2.00;;;;;15.82;77.04;101223.72;5054783;28;45308;-74
2022/10/25 04:49:26;;;;;;;;;2.00;1.25;;;;;15.75;77.43;101211.53;5053464;28;46074;-73
2022/10/25 04:51:51;;;;;;;;;3.75;3.75;;;;;15.73;77.67;101218.03;5053776;28;45352;-74
2022/10/25 04:54:17;;;;;;;;;2.50;2.50;;;;;15.66;77.42;101201.28;5052516;28;45348;-73
2022/10/25 04:56:42;;;;;;;;;4.75;1.75;;;;;15.75;77.50;101222.34;5053695;28;45414;-72
2022/10/25 04:59:08;;;;;;;;;3.25;1.00;;;;;15.75;77.68;101221.47;5052797;28;46279;-71
2022/10/25 05:01:33;;;;;;;;;4.00;3.25;;;;;15.76;77.52;101220.53;5035166;28;45356;-73
2022/10/25 05:03:58;;;;;;;;;3.00;2.00;;;;;15.64;78.12;101219.44;5053082;28;45666;-72
2022/10/25 05:06:26;;;;;;;;;2.00;2.00;;;;;15.66;77.68;101212.09;5053248;28;45524;-73
2022/10/25 05:08:53;;;;;;;;;5.25;2.75;;;;;15.76;77.51;101221.41;5053234;28;45423;-71
2022/10/25 05:11:21;;;;;;;;;2.75;2.50;;;;;15.78;77.42;101224.88;5053518;28;45534;-75
2022/10/25 05:13:47;;;;;;;;;4.00;4.00;;;;;15.80;77.48;101230.22;5052273;28;45448;-72
2022/10/25 05:16:21;;;;;;;;;1.75;1.75;;;;;15.83;77.18;101227.28;5052333;28;45257;-73
2022/10/25 05:18:47;;;;;;;;;5.00;2.75;;;;;15.84;77.50;101226.34;5050466;28;45524;-75
2022/10/25 05:21:16;;;;;;;;;4.50;2.00;;;;;15.84;77.08;101239.84;5049471;28;45444;-77
2022/10/25 05:23:41;;;;;;;;;4.75;3.75;;;;;15.80;77.41;101222.09;5051777;28;45563;-78
2022/10/25 05:26:11;;;;;;;;;4.00;4.00;;;;;15.82;77.70;101233.69;5052931;28;45291;-77
2022/10/25 05:28:38;;;;;;;;;3.00;3.00;;;;;15.72;77.77;101218.97;5052954;28;46205;-75
2022/10/25 05:31:08;;;;;;;;;4.75;4.75;;;;;15.65;78.24;101231.13;5034572;28;45515;-78
2022/10/25 05:33:33;;;;;;;;;4.00;4.00;;;;;15.65;78.49;101236.53;5055132;28;45305;-73
2022/10/25 05:36:00;;;;;;;;;4.75;3.00;;;;;15.61;79.06;101226.84;5060268;28;45366;-74
2022/10/25 05:38:26;;;;;;;;;3.00;3.00;;;;;15.61;78.72;101232.25;5056592;28;46563;-73
2022/10/25 05:40:57;;;;;;;;;3.25;3.25;;;;;15.63;78.75;101238.44;5055845;28;45468;-77
2022/10/25 05:43:23;;;;;;;;;3.75;3.75;;;;;15.65;78.99;101240.06;5046644;28;45565;-80
2022/10/25 05:45:51;;;;;;;;;4.50;3.00;;;;;15.64;79.14;101238.34;5051068;28;45505;-75
2022/10/25 05:48:17;;;;;;;;;3.00;2.50;;;;;15.60;79.10;101230.50;5031813;28;45331;-72
2022/10/25 05:50:43;;;;;;;;;3.50;3.00;;;;;15.66;79.07;101241.81;5053202;28;45257;-72
2022/10/25 05:53:09;;;;;;;;;5.25;5.00;;;;;15.64;78.84;101234.78;5056200;28;45303;-73
2022/10/25 05:55:35;;;;;;;;;3.75;3.75;;;;;15.66;78.92;101239.13;5056041;28;45256;-69
2022/10/25 05:58:00;;;;;;;;;3.75;2.00;;;;;15.66;78.82;101233.72;5055677;28;46435;-69
2022/10/25 06:00:26;;;;;;;;;3.00;3.00;;;;;15.62;79.16;101242.97;5055597;28;45153;-71
2022/10/25 06:02:51;;;;;;;;;4.75;3.50;;;;;15.62;79.01;101239.41;5055707;28;45327;-72
2022/10/25 06:05:16;;;;;;;;;5.75;3.00;;;;;15.64;79.08;101240.19;5055678;28;45404;-73
2022/10/25 06:07:42;;;;;;;;;3.00;3.00;;;;;15.60;79.15;101233.22;5056085;28;49292;-73
2022/10/25 06:10:08;;;;;;;;;3.00;3.00;;;;;15.62;79.21;101237.56;5055621;28;45566;-71
2022/10/25 06:12:33;;;;;;;;;2.75;2.75;;;;;15.56;79.61;101237.06;5056163;28;45249;-73
2022/10/25 06:14:58;;;;;;;;;5.00;4.00;;;;;15.50;79.61;101232.84;5051057;28;45323;-73
2022/10/25 06:17:24;;;;;;;;;3.50;3.50;;;;;15.54;79.35;101229.03;5056042;28;45882;-72
2022/10/25 06:19:49;;;;;;;;;3.00;3.00;;;;;15.53;79.40;101224.56;5055490;28;45510;-72
2022/10/25 06:22:14;;;;;;;;;8.00;4.00;;;;;15.63;79.21;101242.03;5055815;28;45375;-71
2022/10/25 06:24:40;;;;;;;;;2.00;2.00;;;;;15.61;79.32;101240.34;5053665;28;45407;-72
2022/10/25 06:27:05;;;;;;;;;2.75;2.75;;;;;15.56;79.44;101245.19;5054224;28;45474;-73
2022/10/25 06:29:30;;;;;;;;;2.50;2.50;;;;;15.52;79.70;101245.31;5036679;28;50867;-73
2022/10/25 06:31:56;;;;;;;;;6.00;3.00;;;;;15.56;79.40;101248.75;5054559;28;45379;-73
2022/10/25 06:34:21;;;;;;;;;5.75;5.75;;;;;15.56;79.30;101240.66;5055174;28;45392;-74
2022/10/25 06:36:46;;;;;;;;;4.00;4.00;;;;;15.62;79.01;101253.78;5055538;28;46232;-73
2022/10/25 06:39:12;;;;;;;;;7.00;4.00;;;;;15.65;79.03;101258.16;5055513;28;45434;-72
2022/10/25 06:41:37;;;;;;;;;7.75;4.00;;;;;15.63;79.15;101257.38;5055304;28;45246;-75
2022/10/25 06:44:04;;;;;;;;;4.00;3.00;;;;;15.58;79.47;101265.72;5053884;28;45528;-72
2022/10/25 06:46:32;;;;;;;;;4.00;4.00;;;;;15.56;79.04;101250.59;5055321;28;45409;-77
2022/10/25 06:48:58;;;;;;;;;6.25;4.00;;;;;15.62;79.19;101264.59;5054245;28;45785;-74
2022/10/25 06:51:26;;;;;;;;;2.75;2.75;;;;;15.61;79.01;101262.84;5051648;28;45382;-74
2022/10/25 06:53:56;;;;;;;;;4.00;4.00;;;;;15.64;78.83;101261.81;5038928;28;46142;-75
2022/10/25 06:56:22;;;;;;;;;6.50;3.25;;;;;15.63;78.63;101260.94;5055317;28;46042;-71
2022/10/25 06:58:48;;;;;;;;;3.00;3.00;;;;;15.64;78.40;101267.22;5055485;28;45391;-73
2022/10/25 07:01:16;;;;;;;;;4.00;4.00;;;;;15.54;78.68;101255.19;5055433;28;45600;-75
2022/10/25 07:03:42;;;;;;;;;3.25;3.00;;;;;15.55;78.54;101259.66;5054951;28;45371;-73
2022/10/25 07:06:10;;;;;;;;;5.00;3.25;;;;;15.62;78.60;101269.13;5055152;28;46190;-75
2022/10/25 07:08:37;;;;;;;;;2.75;2.75;;;;;15.61;78.39;101270.97;5055191;28;45293;-72
2022/10/25 07:11:03;;;;;;;;;4.00;3.00;;;;;15.63;78.27;101265.47;5055548;28;45383;-73
2022/10/25 07:13:30;;;;;;;;;3.00;2.00;;;;;15.67;77.87;101267.00;5054783;28;45292;-74
2022/10/25 07:16:09;;;;;;;;;5.00;2.00;;;;;15.64;78.15;101273.50;5054649;28;46909;-72
2022/10/25 07:18:35;;;;;;;;;1.75;1.75;;;;;15.60;78.32;101268.34;5054784;28;45350;-73
2022/10/25 07:21:10;;;;;;;;;2.25;1.50;;;;;15.63;78.51;101276.28;5055210;28;45311;-73
2022/10/25 07:23:42;;;;;;;;;3.00;2.00;;;;;15.63;78.36;101287.09;5053894;28;45369;-74
2022/10/25 07:26:16;;;;;;;;;3.25;2.75;;;;;15.63;78.26;101276.28;5054792;28;46201;-75
2022/10/25 07:28:44;;;;;;;;;3.50;2.00;;;;;15.56;78.49;101283.88;5054762;28;45458;-71
2022/10/25 07:31:19;;;;;;;;;5.75;2.25;;;;;15.61;78.39;101289.00;5054466;28;45467;-70
2022/10/25 07:33:45;;;;;;;;;3.75;3.75;;;;;15.47;78.42;101266.34;5054960;28;46093;-73
2022/10/25 07:36:10;;;;;;;;;5.00;3.00;;;;;15.60;78.83;101287.25;5054450;28;45345;-73
2022/10/25 07:38:36;;;;;;;;;4.00;3.00;;;;;15.45;78.91;101272.78;5054728;28;45423;-72
2022/10/25 07:41:01;;;;;;;;;3.50;3.00;;;;;15.59;78.75;101294.50;5054522;28;45295;-74
2022/10/25 07:43:28;;;;;;;;;4.50;3.50;;;;;15.59;78.52;101286.38;5054371;28;45554;-73
2022/10/25 07:45:53;;;;;;;;;4.50;2.00;;;;;15.60;78.36;101287.25;5054195;28;46373;-73
2022/10/25 07:48:19;;;;;;;;;2.25;2.25;;;;;15.67;78.25;101304.84;5054336;28;45455;-71
2022/10/25 07:50:45;;;;;;;;;3.00;2.00;;;;;15.66;78.38;101298.59;5054777;28;45383;-73
2022/10/25 07:53:10;;;;;;;;;6.00;3.75;;;;;15.67;78.64;101291.34;5054445;28;45573;-74
2022/10/25 07:55:36;;;;;;;;;4.75;3.25;;;;;15.72;78.20;101286.56;5053655;28;45916;-71
2022/10/25 07:58:03;;;;;;;;;4.75;3.00;;;;;15.80;78.36;101293.25;5054246;28;45425;-73
2022/10/25 08:00:28;;;;;;;;;4.75;4.00;;;;;15.77;78.04;101298.84;5054156;28;45319;-72
2022/10/25 08:02:54;;;;;;;;;4.50;4.25;;;;;15.69;78.12;101290.31;5053921;28;45242;-74
2022/10/25 08:05:19;;;;;;;;;5.50;5.00;;;;;15.79;77.78;101301.44;5054110;28;46333;-74
2022/10/25 08:07:45;;;;;;;;;5.00;3.00;;;;;15.80;77.45;101295.97;5054442;28;45465;-73
2022/10/25 08:10:10;;;;;;;;;4.00;2.00;;;;;15.92;77.27;101299.75;5054198;28;45538;-73
2022/10/25 08:12:35;;;;;;;;;5.00;3.50;;;;;15.96;76.86;101300.47;5053996;28;45309;-73
2022/10/25 08:15:01;;;;;;;;;3.25;2.50;;;;;16.02;76.46;101295.53;5053591;28;50672;-74
2022/10/25 08:17:26;;;;;;;;;2.75;2.25;;;;;16.05;76.19;101295.38;5054407;28;45446;-74
2022/10/25 08:19:51;;;;;;;;;2.50;2.50;;;;;16.12;75.91;101288.63;5054206;28;45545;-74
2022/10/25 08:22:17;;;;;;;;;3.00;3.00;;;;;16.13;75.36;101286.81;5035953;28;45532;-72
2022/10/25 08:24:42;;;;;;;;;3.75;2.75;;;;;16.15;75.50;101290.28;5052615;28;45454;-73
2022/10/25 08:27:07;;;;;;;;;2.75;2.00;;;;;16.17;75.50;101277.50;5054065;28;45640;-74
2022/10/25 08:29:34;;;;;;;;;2.00;2.00;;;;;16.11;75.58;101276.06;5053695;28;45490;-73
2022/10/25 08:31:59;;;;;;;;;2.75;2.75;;;;;16.21;75.32;101293.50;5053447;28;45229;-73
2022/10/25 08:34:25;;;;;;;;;4.00;3.00;;;;;16.09;74.76;101274.41;5053612;28;45579;-73
2022/10/25 08:36:50;;;;;;;;;6.50;2.00;;;;;16.16;74.98;101282.06;5054034;28;45427;-73
2022/10/25 08:39:18;;;;;;;;;3.25;1.50;;;;;16.16;74.84;101292.88;5054030;28;45596;-74
2022/10/25 08:41:58;;;;;;;;;3.25;2.25;;;;;16.07;74.24;101266.41;5054122;28;45255;-74
2022/10/25 08:44:42;;;;;;;;;2.00;2.00;;;;;16.17;73.94;101278.38;5053620;28;46408;-73
2022/10/25 08:47:25;;;;;;;;;2.00;2.00;;;;;16.12;73.43;101277.81;5054173;28;45366;-73
2022/10/25 08:49:53;;;;;;;;;2.00;2.00;;;;;16.28;72.57;101275.91;5064775;28;45620;-74
2022/10/25 08:52:44;;;;;;;;;3.00;2.00;;;;;16.31;71.91;101274.88;5053845;28;45350;-73
2022/10/25 08:55:28;;;;;;;;;3.50;2.00;;;;;16.36;71.69;101275.44;5042280;28;45337;-74
2022/10/25 08:57:54;;;;;;;;;1.00;1.00;;;;;16.25;70.27;101261.69;5053472;28;45476;-73
2022/10/25 09:00:21;;;;;;;;;2.00;1.00;;;;;16.27;70.44;101276.88;5036411;28;45290;-73
2022/10/25 09:02:56;;;;;;;;;3.00;1.75;;;;;16.40;70.46;101290.53;5053584;28;45419;-73
2022/10/25 09:05:38;;;;;;;;;2.00;0.50;;;;;16.39;69.81;101277.09;5053416;28;46130;-73
2022/10/25 09:08:41;;;;;;;;;0.75;0.75;;;;;16.41;68.78;101283.28;5054843;28;45422;-73
2022/10/25 09:11:22;;;;;;;;;4.00;1.75;;;;;16.46;68.96;101284.75;5057146;28;45483;-72
2022/10/25 09:14:02;;;;;;;;;0.50;0.00;;;;;16.45;68.19;101291.13;5038384;28;45411;-73
2022/10/25 09:16:41;;;;;;;;;1.50;1.00;;;;;16.45;68.22;101282.13;5056495;28;46407;-73
2022/10/25 09:19:31;;;;;;;;;5.50;3.00;;;;;16.52;68.67;101280.78;5056704;28;45333;-73
2022/10/25 09:22:01;;;;;;;;;0.00;0.00;;;;;16.50;67.33;101274.59;5038339;28;45344;-73
2022/10/25 09:24:26;;;;;;;;;1.25;0.00;;;;;16.53;67.71;101271.69;5055335;28;45429;-73
2022/10/25 09:27:06;;;;;;;;;2.00;0.75;;;;;16.57;67.92;101257.00;5056638;28;45343;-75
2022/10/25 09:29:59;;;;;;;;;0.00;0.00;;;;;16.65;67.84;101257.44;5056103;28;45549;-73
2022/10/25 09:32:49;;;;;;;;;1.00;1.00;;;;;16.78;67.98;101266.50;5056728;28;45553;-74
2022/10/25 09:35:24;;;;;;;;;1.00;1.00;;;;;16.76;67.76;101275.72;5056560;28;45470;-74
2022/10/25 09:38:00;;;;;;;;;0.25;0.25;;;;;16.79;67.27;101279.09;5056534;28;46142;-73
2022/10/25 09:40:45;;;;;;;;;3.25;1.00;;;;;16.88;67.16;101270.38;5056650;28;45239;-74
2022/10/25 09:43:16;;;;;;;;;0.25;0.25;;;;;16.86;67.36;101261.47;5056508;28;45313;-74
2022/10/25 09:45:55;;;;;;;;;0.75;0.75;;;;;16.87;67.54;101252.38;5056149;28;46301;-73
2022/10/25 09:48:47;;;;;;;;;1.00;1.00;;;;;17.03;67.36;101263.09;5056265;28;46445;-73
2022/10/25 09:51:23;;;;;;;;;0.00;0.00;;;;;17.05;66.13;101263.00;5056452;28;45326;-73
2022/10/25 09:53:49;;;;;;;;;1.00;0.25;;;;;17.03;66.39;101258.56;5056563;28;45324;-75
2022/10/25 09:56:16;;;;;;;;;1.00;1.00;;;;;17.02;65.58;101251.38;5055209;28;45464;-72
2022/10/25 09:58:45;;;;;;;;;0.50;0.50;;;;;17.16;66.15;101276.75;5055891;28;45328;-72
2022/10/25 10:01:29;;;;;;;;;1.00;1.00;;;;;17.18;65.99;101262.09;5037960;28;45417;-73
2022/10/25 10:04:22;;;;;;;;;0.25;0.25;;;;;17.25;65.68;101265.31;5056164;28;45462;-73
2022/10/25 10:06:51;;;;;;;;;2.00;0.00;;;;;17.23;65.47;101250.97;5055731;28;45345;-74
2022/10/25 10:09:16;;;;;;;;;0.00;0.00;;;;;17.30;65.61;101255.03;5055968;28;45359;-74
2022/10/25 10:11:45;;;;;;;;;0.00;0.00;;;;;17.32;64.94;101253.97;5055887;28;45470;-73
2022/10/25 10:14:26;;;;;;;;;0.00;0.00;;;;;17.33;65.37;101258.41;5056037;28;45409;-73
2022/10/25 10:16:55;;;;;;;;;0.00;0.00;;;;;17.35;65.10;101242.91;5056152;28;45360;-73
2022/10/25 10:19:23;;;;;;;;;1.00;1.00;;;;;17.47;65.17;101243.94;5055476;28;46370;-73
2022/10/25 10:21:50;;;;;;;;;2.00;0.00;;;;;17.50;65.03;101243.75;5056031;28;45370;-73
2022/10/25 10:24:27;;;;;;;;;3.50;2.00;;;;;17.58;65.07;101246.81;5050168;28;45304;-71
2022/10/25 10:27:01;;;;;;;;;0.50;0.50;;;;;17.53;64.47;101221.81;5054175;28;45322;-77
2022/10/25 10:29:29;;;;;;;;;4.00;1.00;;;;;17.73;65.00;101240.38;5056360;28;45995;-75
2022/10/25 10:31:59;;;;;;;;;5.00;2.00;;;;;17.62;64.71;101217.66;5055820;28;45212;-76
2022/10/25 10:34:29;;;;;;;;;2.00;2.00;;;;;17.83;64.33;101240.63;5055751;28;45523;-75
2022/10/25 10:37:15;;;;;;;;;1.00;1.00;;;;;18.00;64.64;101247.59;5055684;28;45201;-76
2022/10/25 10:40:03;;;;;;;;;2.50;0.50;;;;;18.11;64.42;101247.75;5055389;28;46061;-74
2022/10/25 10:42:28;;;;;;;;;0.00;0.00;;;;;18.19;64.47;101248.06;5055196;28;45411;-72
2022/10/25 10:45:14;;;;;;;;;1.25;1.25;;;;;18.22;64.71;101237.00;5055925;28;45457;-81
2022/10/25 10:47:49;;;;;;;;;1.75;0.75;;;;;18.37;64.61;101237.78;5056828;28;45499;-76
2022/10/25 10:50:21;;;;;;;;;2.00;2.00;;;;;18.60;64.21;101249.75;5037805;28;46648;-75
2022/10/25 10:52:59;;;;;;;;;2.00;1.00;;;;;18.92;63.97;101231.13;5044000;28;45334;-76
2022/10/25 10:55:31;;;;;;;;;2.00;2.00;;;;;19.80;61.81;101224.50;5059849;28;45454;-79
2022/10/25 10:58:17;;;;;;;;;1.50;1.00;;;;;20.89;58.30;101228.56;5057325;28;46019;-80
2022/10/25 11:01:00;;;;;;;;;0.50;0.50;;;;;21.93;55.10;101213.44;5056920;28;46231;-80
2022/10/25 11:03:40;;;;;;;;;3.50;1.50;;;;;22.49;53.96;101224.03;5066955;28;45551;-81
2022/10/25 11:06:23;;;;;;;;;4.00;2.00;;;;;23.41;51.89;101203.81;5059122;28;45451;-78
2022/10/25 11:09:18;;;;;;;;;2.00;2.00;;;;;24.19;49.92;101196.47;5055398;28;45827;-80
2022/10/25 11:11:44;;;;;;;;;1.75;1.75;;;;;25.22;45.94;101194.53;5038250;28;47390;-79
2022/10/25 11:14:12;;;;;;;;;1.25;1.25;;;;;26.16;44.51;101190.31;5057889;28;45489;-78
2022/10/25 11:16:43;;;;;;;;;3.00;2.75;;;;;27.15;43.16;101196.25;5056590;28;45411;-79
2022/10/25 11:19:53;;;;;;;;;2.75;1.75;;;;;28.17;40.42;101190.44;5056495;28;45485;-77
2022/10/25 11:22:55;;;;;;;;;2.00;2.00;;;;;28.92;38.17;101196.50;5055307;28;45917;-75
2022/10/25 11:25:28;;;;;;;;;1.00;1.00;;;;;29.42;36.38;101173.16;5046227;28;45383;-78
2022/10/25 11:27:53;;;;;;;;;1.00;1.00;;;;;30.06;36.91;101178.19;5055626;28;45486;-73
2022/10/25 11:30:21;;;;;;;;;1.33;1.33;;;;;30.69;35.92;101182.44;5052274;28;45553;-72
2022/10/25 11:32:49;;;;;;;;;1.33;1.33;;;;;31.22;35.28;101176.78;5054522;28;46094;-74
2022/10/25 11:35:49;;;;;;;;;1.00;1.00;;;;;31.35;32.64;101171.38;5054376;28;45477;-73
2022/10/25 11:38:27;;;;;;;;;1.00;1.00;;;;;31.31;32.66;101186.66;5014154;28;45710;-73
2022/10/25 11:41:13;;;;;;;;;2.00;2.00;;;;;31.26;33.17;101178.97;5054404;28;45607;-74
2022/10/25 11:44:03;;;;;;;;;0.33;0.33;;;;;30.61;34.22;101176.13;5054508;28;45418;-72
2022/10/25 11:46:46;;;;;;;;;5.33;2.00;;;;;29.95;34.33;101180.53;5055166;28;45406;-71
2022/10/25 11:49:27;;;;;;;;;2.00;2.00;;;;;29.76;35.64;101176.38;5055247;28;45327;-74
2022/10/25 11:51:55;;;;;;;;;2.00;2.00;;;;;29.87;35.73;101169.53;5054903;28;45429;-72
2022/10/25 11:54:38;;;;;;;;;2.33;1.67;;;;;29.98;35.08;101175.50;5054918;28;46222;-73
2022/10/25 11:57:19;;;;;;;;;1.67;1.67;;;;;30.04;35.53;101187.72;5054611;28;45344;-73
2022/10/25 12:00:02;;;;;;;;;0.67;0.67;;;;;29.76;35.57;101168.06;5054460;28;45411;-73
2022/10/25 12:02:37;;;;;;;;;5.50;2.00;;;;;29.49;36.07;101152.91;5054444;28;45367;-73
2022/10/25 12:05:29;;;;;;;;;1.00;1.00;;;;;29.65;35.48;101158.31;5054284;28;46509;-73
2022/10/25 12:08:27;;;;;;;;;2.00;2.00;;;;;29.66;36.03;101157.25;5032763;28;45244;-74
2022/10/25 12:11:07;;;;;;;;;3.00;1.00;;;;;29.77;35.69;101152.34;5032943;28;45538;-73
2022/10/25 12:13:39;;;;;;;;;3.00;1.67;;;;;30.15;34.68;101156.00;5053908;28;45531;-72
2022/10/25 12:16:10;;;;;;;;;4.00;2.00;;;;;30.42;34.15;101147.94;5054152;28;46146;-72
2022/10/25 12:18:39;;;;;;;;;1.50;0.25;;;;;30.38;34.86;101143.81;5054153;28;45407;-74
2022/10/25 12:21:07;;;;;;;;;2.00;2.00;;;;;30.43;34.28;101148.81;5054313;28;45422;-74
2022/10/25 12:23:43;;;;;;;;;1.00;1.00;;;;;30.38;34.28;101143.81;5052861;28;45627;-74
2022/10/25 12:26:24;;;;;;;;;2.67;2.00;;;;;29.96;34.95;101135.25;5054396;28;45570;-75
2022/10/25 12:28:50;;;;;;;;;1.00;1.00;;;;;29.67;35.77;101139.63;5053858;28;45551;-75
2022/10/25 12:31:26;;;;;;;;;3.25;2.00;;;;;29.32;36.18;101135.53;5036094;28;45298;-75
2022/10/25 12:34:02;;;;;;;;;1.00;1.00;;;;;28.43;37.31;101129.53;5055239;28;45402;-75
2022/10/25 12:36:36;;;;;;;;;3.00;1.25;;;;;27.92;38.42;101120.63;5053827;28;45389;-74
2022/10/25 12:39:11;;;;;;;;;3.00;2.25;;;;;27.53;39.27;101122.34;5054152;28;45401;-74
2022/10/25 12:41:39;;;;;;;;;2.00;2.00;;;;;26.95;40.75;101084.75;5055119;28;45414;-75
2022/10/25 12:44:07;;;;;;;;;3.00;1.50;;;;;26.72;40.72;101123.81;5057918;28;45421;-74
2022/10/25 12:46:41;;;;;;;;;2.00;1.50;;;;;26.38;41.53;101111.97;5058084;28;46243;-77
2022/10/25 12:49:32;;;;;;;;;1.50;1.25;;;;;25.82;42.37;101104.19;5058018;28;45383;-75
2022/10/25 12:52:09;;;;;;;;;4.50;1.75;;;;;25.45;43.85;101110.72;5057770;28;45237;-74
2022/10/25 12:55:10;;;;;;;;;1.75;1.50;;;;;24.93;44.66;101092.34;5058084;28;45226;-75
2022/10/25 12:58:13;;;;;;;;;2.00;0.00;;;;;24.65;45.56;101094.22;5057932;28;45360;-76
2022/10/25 13:00:55;;;;;;;;;2.00;2.00;;;;;24.37;46.56;101091.47;4986747;28;45521;-75
2022/10/25 13:03:42;;;;;;;;;1.75;1.75;;;;;24.02;46.55;101089.41;5058732;28;45497;-74
2022/10/25 13:06:19;;;;;;;;;1.00;1.00;;;;;23.84;47.44;101102.13;5058882;28;45188;-76
2022/10/25 13:08:45;;;;;;;;;4.75;1.75;;;;;23.48;48.17;101087.28;5056450;28;45654;-74
2022/10/25 13:11:11;;;;;;;;;4.25;2.00;;;;;23.38;48.90;101097.41;5058601;28;45452;-74
2022/10/25 13:13:45;;;;;;;;;2.25;2.25;;;;;23.10;49.03;101073.63;5058618;28;45292;-74
2022/10/25 13:16:23;;;;;;;;;4.50;2.25;;;;;22.86;50.34;101076.75;5058681;28;45264;-75
2022/10/25 13:19:29;;;;;;;;;1.75;1.75;;;;;22.81;50.98;101089.97;5058711;28;45447;-75
2022/10/25 13:21:54;;;;;;;;;2.00;2.00;;;;;22.78;51.23;101076.59;5057804;28;45241;-75
2022/10/25 13:24:39;;;;;;;;;2.00;2.00;;;;;22.79;51.27;101078.34;5057136;28;45414;-75
2022/10/25 13:27:13;;;;;;;;;2.50;2.50;;;;;22.81;50.90;101082.63;5058833;28;45361;-76
2022/10/25 13:29:44;;;;;;;;;5.25;2.50;;;;;22.63;51.19;101076.09;5058394;28;45309;-74
2022/10/25 13:32:17;;;;;;;;;1.75;1.75;;;;;22.40;51.51;101066.38;5070454;28;45346;-74
2022/10/25 13:34:43;;;;;;;;;3.50;2.00;;;;;22.25;52.00;101061.31;5078473;28;45382;-75
2022/10/25 13:37:30;;;;;;;;;2.00;0.50;;;;;22.26;51.79;101059.44;5078912;28;45428;-75
2022/10/25 13:39:58;;;;;;;;;3.75;3.00;;;;;22.21;51.71;101042.59;5078903;28;46399;-75
2022/10/25 13:42:36;;;;;;;;;2.25;2.25;;;;;22.16;52.04;101064.00;5078688;28;45464;-75
2022/10/25 13:45:01;;;;;;;;;0.75;0.75;;;;;22.23;51.88;101055.09;5066538;28;45524;-74
2022/10/25 13:47:26;;;;;;;;;3.25;2.00;;;;;22.29;52.14;101056.41;5058440;28;45334;-76
2022/10/25 13:49:52;;;;;;;;;3.50;1.75;;;;;22.29;52.24;101053.69;5059511;28;45155;-74
2022/10/25 13:52:44;;;;;;;;;3.00;3.00;;;;;22.29;52.13;101050.94;5042539;28;45393;-75
2022/10/25 13:55:15;;;;;;;;;2.25;2.25;;;;;22.19;51.93;101048.22;5056386;28;45230;-76
2022/10/25 13:57:44;;;;;;;;;2.00;2.00;;;;;22.12;52.39;101040.66;5056296;28;45554;-73
2022/10/25 14:00:27;;;;;;;;;1.50;1.50;;;;;22.02;52.74;101046.13;5059961;28;46422;-75
2022/10/25 14:03:08;;;;;;;;;1.50;1.50;;;;;22.02;53.05;101037.06;5056589;28;45482;-75
2022/10/25 14:05:55;;;;;;;;;2.00;1.50;;;;;22.01;52.97;101032.59;5057070;28;45306;-75
2022/10/25 14:08:26;;;;;;;;;3.00;1.50;;;;;21.95;53.26;101024.94;5057923;28;45440;-74
2022/10/25 14:10:53;;;;;;;;;3.25;3.25;;;;;21.89;53.57;101009.94;5056843;28;46655;-75
2022/10/25 14:13:24;;;;;;;;;3.50;2.00;;;;;21.94;53.60;101025.94;5056641;28;45652;-76
2022/10/25 14:16:01;;;;;;;;;1.50;0.50;;;;;21.86;53.74;101012.97;5066732;28;45349;-76
2022/10/25 14:18:28;;;;;;;;;2.25;1.00;;;;;21.84;53.71;101004.03;5041841;28;46827;-76
2022/10/25 14:21:01;;;;;;;;;2.00;2.00;;;;;21.79;53.54;101003.56;5073362;28;48414;-75
2022/10/25 14:23:32;;;;;;;;;3.00;1.75;;;;;21.87;53.31;101004.63;5066660;28;45358;-75
2022/10/25 14:26:00;;;;;;;;;3.00;1.75;;;;;21.82;53.86;100990.53;5060098;28;45494;-75
2022/10/25 14:28:27;;;;;;;;;1.75;1.75;;;;;21.76;53.76;100999.25;5079448;28;45225;-74
2022/10/25 14:30:54;;;;;;;;;2.75;2.25;;;;;21.73;53.83;100993.19;5078805;28;45372;-75
2022/10/25 14:33:26;;;;;;;;;2.00;1.50;;;;;21.65;54.37;100996.63;5079733;28;45397;-74
2022/10/25 14:36:04;;;;;;;;;2.25;2.00;;;;;21.63;54.64;100992.28;5078932;28;45212;-75
2022/10/25 14:38:34;;;;;;;;;2.25;2.25;;;;;21.58;54.95;100991.84;5078637;27;45347;-75
2022/10/25 14:41:02;;;;;;;;;2.75;2.75;;;;;21.58;55.36;100986.38;5080323;28;45295;-75
2022/10/25 14:43:31;;;;;;;;;2.00;2.00;;;;;21.60;55.21;100982.53;5078967;28;45451;-74
2022/10/25 14:46:02;;;;;;;;;2.75;1.50;;;;;21.65;55.01;100982.09;5079385;28;45394;-75
2022/10/25 14:48:28;;;;;;;;;2.50;2.50;;;;;21.58;55.73;100965.41;5076947;28;45559;-74
2022/10/25 14:50:58;;;;;;;;;3.50;1.75;;;;;21.50;54.91;100938.81;5076838;28;45915;-75
2022/10/25 14:53:25;;;;;;;;;1.25;1.00;;;;;21.65;55.50;100952.94;5076875;28;45328;-75
2022/10/25 14:55:54;;;;;;;;;1.50;1.50;;;;;21.73;55.52;100965.91;5079233;28;45323;-75
2022/10/25 14:58:20;;;;;;;;;3.00;1.75;;;;;21.63;55.96;100952.22;5078947;28;45344;-75
2022/10/25 15:00:54;;;;;;;;;1.50;1.50;;;;;21.69;55.66;100968.03;5073627;28;46148;-75
2022/10/25 15:03:20;;;;;;;;;2.75;1.75;;;;;21.56;55.89;100941.97;5060321;28;45371;-75
2022/10/25 15:05:46;;;;;;;;;2.00;2.00;;;;;21.52;56.10;100944.97;5078645;28;45350;-75
2022/10/25 15:08:18;;;;;;;;;1.25;1.00;;;;;21.53;56.69;100956.75;5077942;28;45494;-75
2022/10/25 15:10:45;;;;;;;;;2.00;1.00;;;;;21.52;56.94;100949.59;5079026;28;46137;-75
2022/10/25 15:13:20;;;;;;;;;0.75;0.75;;;;;21.49;56.59;100955.31;5058406;28;45427;-75
2022/10/25 15:15:48;;;;;;;;;2.00;2.00;;;;;21.43;56.65;100954.00;5078716;27;45377;-75
2022/10/25 15:18:25;;;;;;;;;3.50;2.50;;;;;21.38;56.82;100950.78;5078521;28;45421;-75
2022/10/25 15:21:02;;;;;;;;;3.75;1.50;;;;;21.32;57.20;100947.75;5077557;28;46220;-73
2022/10/25 15:23:28;;;;;;;;;1.50;1.50;;;;;21.21;57.11;100936.91;5077182;28;45207;-75
2022/10/25 15:25:53;;;;;;;;;3.50;2.00;;;;;21.19;57.56;100939.75;5079021;27;45233;-75
2022/10/25 15:28:19;;;;;;;;;3.00;1.50;;;;;21.04;58.19;100931.03;5077886;28;45576;-75
2022/10/25 15:30:47;;;;;;;;;2.00;2.00;;;;;21.04;57.78;100933.75;5076908;28;46187;-78
2022/10/25 15:33:17;;;;;;;;;2.00;2.00;;;;;20.98;58.38;100939.75;5080454;27;45221;-78
2022/10/25 15:35:48;;;;;;;;;1.75;1.75;;;;;20.94;58.36;100940.13;5086329;28;45223;-79
2022/10/25 15:38:16;;;;;;;;;1.75;1.75;;;;;20.86;59.00;100929.88;5084224;28;45507;-76
2022/10/25 15:40:42;;;;;;;;;3.50;2.50;;;;;20.55;58.84;100877.16;5073355;28;46466;-77
2022/10/25 15:43:07;;;;;;;;;1.50;1.50;;;;;20.72;59.15;100922.03;5081144;28;45237;-78
2022/10/25 15:45:33;;;;;;;;;3.00;1.75;;;;;20.69;59.11;100916.84;5082406;27;44764;-78
2022/10/25 15:47:58;;;;;;;;;4.25;4.00;;;;;20.51;59.42;100892.03;5053472;28;45319;-74
2022/10/25 15:50:24;;;;;;;;;6.00;3.00;;;;;20.56;59.72;100914.31;5051633;28;48297;-74
2022/10/25 15:52:50;;;;;;;;;2.25;1.75;;;;;20.53;59.74;100911.84;5074846;27;45385;-73
2022/10/25 15:55:21;;;;;;;;;1.25;1.25;;;;;20.48;59.88;100905.06;5074874;28;45479;-74
2022/10/25 15:57:47;;;;;;;;;1.00;1.00;;;;;20.39;60.02;100899.41;5074808;28;45260;-75
2022/10/25 16:00:19;;;;;;;;;3.50;2.00;;;;;20.39;60.00;100902.13;5074179;28;45649;-74
2022/10/25 16:02:45;;;;;;;;;2.50;2.50;;;;;20.34;60.46;100903.47;5075454;28;45360;-74
2022/10/25 16:05:19;;;;;;;;;1.75;1.75;;;;;20.26;60.54;100893.19;5074905;28;45335;-75
2022/10/25 16:07:44;;;;;;;;;4.75;2.00;;;;;20.29;60.74;100897.53;5056564;28;46183;-74
2022/10/25 16:10:11;;;;;;;;;5.00;4.00;;;;;20.26;60.91;100904.09;5056401;28;45288;-74
2022/10/25 16:12:37;;;;;;;;;2.25;1.50;;;;;20.23;60.67;100889.88;5073099;28;45354;-75
2022/10/25 16:15:03;;;;;;;;;2.75;2.00;;;;;20.20;61.45;100884.69;5073914;28;45383;-74
2022/10/25 16:17:28;;;;;;;;;1.25;1.25;;;;;20.13;61.49;100880.75;5072717;28;45442;-77